sensor_id;sensor_type;location;lat;lon;timestamp;P1;durP1;ratioP1;P2;durP2;ratioP2
6280;SDS011;3173;48.204;11.612;2023-01-15T00:00:58;2.93;;;1.40;;
6280;SDS011;3173;48.204;11.612;2023-01-15T00:03:25;7.30;;;3.07;;
6280;SDS011;3173;48.204;11.612;2023-01-15T00:05:51;4.20;;;1.57;;
6280;SDS011;3173;48.204;11.612;2023-01-15T00:08:17;3.80;;;1.60;;
6280;SDS011;3173;48.204;11.612;2023-01-15T00:10:43;1.83;;;1.20;;
6280;SDS011;3173;48.204;11.612;2023-01-15T00:13:09;2.73;;;1.40;;
6280;SDS011;3173;48.204;11.612;2023-01-15T00:15:35;1.70;;;1.00;;
6280;SDS011;3173;48.204;11.612;2023-01-15T00:18:02;1.77;;;1.10;;
6280;SDS011;3173;48.204;11.612;2023-01-15T00:20:28;1.93;;;1.00;;
6280;SDS011;3173;48.204;11.612;2023-01-15T00:22:55;1.97;;;0.90;;
6280;SDS011;3173;48.204;11.612;2023-01-15T00:25:21;1.30;;;0.80;;
6280;SDS011;3173;48.204;11.612;2023-01-15T00:28:05;1.50;;;0.90;;
6280;SDS011;3173;48.204;11.612;2023-01-15T00:30:31;1.60;;;1.10;;
6280;SDS011;3173;48.204;11.612;2023-01-15T00:32:57;1.80;;;0.90;;
6280;SDS011;3173;48.204;11.612;2023-01-15T00:35:23;1.83;;;1.03;;
6280;SDS011;3173;48.204;11.612;2023-01-15T00:37:50;1.80;;;0.90;;
6280;SDS011;3173;48.204;11.612;2023-01-15T00:40:16;2.20;;;0.90;;
6280;SDS011;3173;48.204;11.612;2023-01-15T00:42:43;2.33;;;0.90;;
6280;SDS011;3173;48.204;11.612;2023-01-15T00:45:10;1.57;;;0.90;;
6280;SDS011;3173;48.204;11.612;2023-01-15T00:47:40;2.13;;;0.90;;
6280;SDS011;3173;48.204;11.612;2023-01-15T00:50:07;2.47;;;1.00;;
6280;SDS011;3173;48.204;11.612;2023-01-15T00:52:34;1.10;;;0.90;;
6280;SDS011;3173;48.204;11.612;2023-01-15T00:55:00;1.00;;;0.70;;
6280;SDS011;3173;48.204;11.612;2023-01-15T00:57:26;1.97;;;1.00;;
6280;SDS011;3173;48.204;11.612;2023-01-15T00:59:53;2.10;;;0.90;;
6280;SDS011;3173;48.204;11.612;2023-01-15T01:02:19;1.90;;;0.90;;
6280;SDS011;3173;48.204;11.612;2023-01-15T01:04:45;1.77;;;1.17;;
6280;SDS011;3173;48.204;11.612;2023-01-15T01:07:11;1.13;;;0.80;;
6280;SDS011;3173;48.204;11.612;2023-01-15T01:09:37;1.43;;;0.90;;
6280;SDS011;3173;48.204;11.612;2023-01-15T01:12:04;1.63;;;0.93;;
6280;SDS011;3173;48.204;11.612;2023-01-15T01:14:30;2.20;;;1.03;;
6280;SDS011;3173;48.204;11.612;2023-01-15T01:16:56;1.43;;;0.80;;
6280;SDS011;3173;48.204;11.612;2023-01-15T01:19:23;1.20;;;0.80;;
6280;SDS011;3173;48.204;11.612;2023-01-15T01:21:49;1.53;;;0.77;;
6280;SDS011;3173;48.204;11.612;2023-01-15T01:24:16;3.33;;;0.83;;
6280;SDS011;3173;48.204;11.612;2023-01-15T01:26:43;2.50;;;0.83;;
6280;SDS011;3173;48.204;11.612;2023-01-15T01:29:13;1.63;;;1.07;;
6280;SDS011;3173;48.204;11.612;2023-01-15T01:31:40;1.40;;;0.90;;
6280;SDS011;3173;48.204;11.612;2023-01-15T01:34:06;2.07;;;1.00;;
6280;SDS011;3173;48.204;11.612;2023-01-15T01:36:33;2.60;;;0.90;;
6280;SDS011;3173;48.204;11.612;2023-01-15T01:39:00;3.77;;;0.90;;
6280;SDS011;3173;48.204;11.612;2023-01-15T01:41:27;1.07;;;0.77;;
6280;SDS011;3173;48.204;11.612;2023-01-15T01:46:19;2.70;;;0.90;;
6280;SDS011;3173;48.204;11.612;2023-01-15T01:48:46;1.77;;;1.00;;
6280;SDS011;3173;48.204;11.612;2023-01-15T01:51:13;5.30;;;1.10;;
6280;SDS011;3173;48.204;11.612;2023-01-15T01:53:39;2.10;;;0.80;;
6280;SDS011;3173;48.204;11.612;2023-01-15T01:56:06;1.33;;;0.80;;
6280;SDS011;3173;48.204;11.612;2023-01-15T01:58:33;1.30;;;0.77;;
6280;SDS011;3173;48.204;11.612;2023-01-15T02:01:00;1.17;;;0.80;;
6280;SDS011;3173;48.204;11.612;2023-01-15T02:03:28;2.03;;;0.80;;
6280;SDS011;3173;48.204;11.612;2023-01-15T02:05:57;1.37;;;0.80;;
6280;SDS011;3173;48.204;11.612;2023-01-15T02:08:24;0.97;;;0.73;;
6280;SDS011;3173;48.204;11.612;2023-01-15T02:10:53;2.37;;;0.90;;
6280;SDS011;3173;48.204;11.612;2023-01-15T02:13:24;1.40;;;0.80;;
6280;SDS011;3173;48.204;11.612;2023-01-15T02:15:54;2.60;;;0.80;;
6280;SDS011;3173;48.204;11.612;2023-01-15T02:18:27;1.40;;;0.93;;
6280;SDS011;3173;48.204;11.612;2023-01-15T02:21:03;2.23;;;0.90;;
6280;SDS011;3173;48.204;11.612;2023-01-15T02:23:37;1.13;;;0.87;;
6280;SDS011;3173;48.204;11.612;2023-01-15T02:28:50;1.70;;;0.80;;
6280;SDS011;3173;48.204;11.612;2023-01-15T02:34:19;1.30;;;0.70;;
6280;SDS011;3173;48.204;11.612;2023-01-15T02:36:49;1.83;;;1.00;;
6280;SDS011;3173;48.204;11.612;2023-01-15T02:39:15;2.60;;;0.90;;
6280;SDS011;3173;48.204;11.612;2023-01-15T02:41:46;2.67;;;1.00;;
6280;SDS011;3173;48.204;11.612;2023-01-15T02:44:14;2.53;;;0.90;;
6280;SDS011;3173;48.204;11.612;2023-01-15T02:46:41;1.17;;;0.73;;
6280;SDS011;3173;48.204;11.612;2023-01-15T02:49:08;1.13;;;0.80;;
6280;SDS011;3173;48.204;11.612;2023-01-15T02:51:39;1.10;;;0.70;;
6280;SDS011;3173;48.204;11.612;2023-01-15T02:54:08;1.57;;;0.63;;
6280;SDS011;3173;48.204;11.612;2023-01-15T02:56:36;1.43;;;0.70;;
6280;SDS011;3173;48.204;11.612;2023-01-15T02:59:06;1.00;;;0.70;;
6280;SDS011;3173;48.204;11.612;2023-01-15T03:01:42;2.07;;;0.70;;
6280;SDS011;3173;48.204;11.612;2023-01-15T03:04:12;1.37;;;0.80;;
6280;SDS011;3173;48.204;11.612;2023-01-15T03:09:26;1.23;;;0.80;;
6280;SDS011;3173;48.204;11.612;2023-01-15T03:12:01;1.50;;;0.90;;
6280;SDS011;3173;48.204;11.612;2023-01-15T03:15:15;1.53;;;0.80;;
6280;SDS011;3173;48.204;11.612;2023-01-15T03:17:21;2.70;;;0.80;;
6280;SDS011;3173;48.204;11.612;2023-01-15T03:22:25;0.97;;;0.70;;
6280;SDS011;3173;48.204;11.612;2023-01-15T03:24:53;1.53;;;0.70;;
6280;SDS011;3173;48.204;11.612;2023-01-15T03:27:20;1.17;;;0.73;;
6280;SDS011;3173;48.204;11.612;2023-01-15T03:29:48;1.53;;;0.77;;
6280;SDS011;3173;48.204;11.612;2023-01-15T03:32:15;1.70;;;0.70;;
6280;SDS011;3173;48.204;11.612;2023-01-15T03:34:43;1.37;;;0.80;;
6280;SDS011;3173;48.204;11.612;2023-01-15T03:37:11;1.87;;;0.80;;
6280;SDS011;3173;48.204;11.612;2023-01-15T03:42:54;1.20;;;0.80;;
6280;SDS011;3173;48.204;11.612;2023-01-15T03:45:40;1.23;;;0.70;;
6280;SDS011;3173;48.204;11.612;2023-01-15T03:48:11;1.20;;;0.80;;
6280;SDS011;3173;48.204;11.612;2023-01-15T03:50:52;1.17;;;0.83;;
6280;SDS011;3173;48.204;11.612;2023-01-15T03:53:25;1.47;;;0.90;;
6280;SDS011;3173;48.204;11.612;2023-01-15T03:56:01;1.00;;;0.70;;
6280;SDS011;3173;48.204;11.612;2023-01-15T03:58:50;1.10;;;0.80;;
6280;SDS011;3173;48.204;11.612;2023-01-15T04:01:18;1.27;;;0.87;;
6280;SDS011;3173;48.204;11.612;2023-01-15T04:03:44;1.33;;;0.80;;
6280;SDS011;3173;48.204;11.612;2023-01-15T04:06:13;1.10;;;0.70;;
6280;SDS011;3173;48.204;11.612;2023-01-15T04:08:39;1.03;;;0.80;;
6280;SDS011;3173;48.204;11.612;2023-01-15T04:11:06;3.20;;;1.40;;
6280;SDS011;3173;48.204;11.612;2023-01-15T04:13:33;1.37;;;0.73;;
6280;SDS011;3173;48.204;11.612;2023-01-15T04:15:59;1.30;;;0.90;;
6280;SDS011;3173;48.204;11.612;2023-01-15T04:18:25;1.60;;;0.70;;
6280;SDS011;3173;48.204;11.612;2023-01-15T04:20:52;1.20;;;0.87;;
6280;SDS011;3173;48.204;11.612;2023-01-15T04:23:21;1.33;;;0.80;;
6280;SDS011;3173;48.204;11.612;2023-01-15T04:25:47;2.50;;;0.80;;
6280;SDS011;3173;48.204;11.612;2023-01-15T04:28:13;1.57;;;0.80;;
6280;SDS011;3173;48.204;11.612;2023-01-15T04:30:40;2.87;;;0.90;;
6280;SDS011;3173;48.204;11.612;2023-01-15T04:33:07;3.00;;;0.90;;
6280;SDS011;3173;48.204;11.612;2023-01-15T04:35:33;1.00;;;0.70;;
6280;SDS011;3173;48.204;11.612;2023-01-15T04:38:00;2.20;;;0.87;;
6280;SDS011;3173;48.204;11.612;2023-01-15T04:40:26;1.97;;;0.70;;
6280;SDS011;3173;48.204;11.612;2023-01-15T04:43:11;1.27;;;0.97;;
6280;SDS011;3173;48.204;11.612;2023-01-15T04:45:57;1.90;;;0.80;;
6280;SDS011;3173;48.204;11.612;2023-01-15T04:48:23;1.80;;;0.90;;
6280;SDS011;3173;48.204;11.612;2023-01-15T04:50:49;1.13;;;0.70;;
6280;SDS011;3173;48.204;11.612;2023-01-15T04:53:15;1.70;;;0.80;;
6280;SDS011;3173;48.204;11.612;2023-01-15T04:55:41;1.47;;;0.80;;
6280;SDS011;3173;48.204;11.612;2023-01-15T04:58:07;1.77;;;0.80;;
6280;SDS011;3173;48.204;11.612;2023-01-15T05:00:34;1.10;;;0.73;;
6280;SDS011;3173;48.204;11.612;2023-01-15T05:03:00;1.00;;;0.80;;
6280;SDS011;3173;48.204;11.612;2023-01-15T05:05:26;1.03;;;0.83;;
6280;SDS011;3173;48.204;11.612;2023-01-15T05:07:52;1.60;;;0.87;;
6280;SDS011;3173;48.204;11.612;2023-01-15T05:10:18;1.07;;;0.73;;
6280;SDS011;3173;48.204;11.612;2023-01-15T05:12:44;4.63;;;0.90;;
6280;SDS011;3173;48.204;11.612;2023-01-15T05:15:10;1.50;;;0.80;;
6280;SDS011;3173;48.204;11.612;2023-01-15T05:17:37;1.03;;;0.70;;
6280;SDS011;3173;48.204;11.612;2023-01-15T05:20:03;1.30;;;0.90;;
6280;SDS011;3173;48.204;11.612;2023-01-15T05:22:29;2.00;;;1.13;;
6280;SDS011;3173;48.204;11.612;2023-01-15T05:24:55;1.47;;;1.00;;
6280;SDS011;3173;48.204;11.612;2023-01-15T05:27:21;1.40;;;0.90;;
6280;SDS011;3173;48.204;11.612;2023-01-15T05:29:47;2.70;;;1.23;;
6280;SDS011;3173;48.204;11.612;2023-01-15T05:32:13;1.10;;;0.80;;
6280;SDS011;3173;48.204;11.612;2023-01-15T05:34:40;1.47;;;1.03;;
6280;SDS011;3173;48.204;11.612;2023-01-15T05:37:06;1.13;;;0.70;;
6280;SDS011;3173;48.204;11.612;2023-01-15T05:39:32;1.70;;;0.80;;
6280;SDS011;3173;48.204;11.612;2023-01-15T05:41:58;1.20;;;0.80;;
6280;SDS011;3173;48.204;11.612;2023-01-15T05:44:25;1.50;;;0.93;;
6280;SDS011;3173;48.204;11.612;2023-01-15T05:46:53;1.10;;;0.80;;
6280;SDS011;3173;48.204;11.612;2023-01-15T05:49:20;1.57;;;0.60;;
6280;SDS011;3173;48.204;11.612;2023-01-15T05:51:47;1.30;;;0.80;;
6280;SDS011;3173;48.204;11.612;2023-01-15T05:54:14;1.07;;;0.63;;
6280;SDS011;3173;48.204;11.612;2023-01-15T05:56:40;0.90;;;0.60;;
6280;SDS011;3173;48.204;11.612;2023-01-15T05:59:08;1.77;;;0.80;;
6280;SDS011;3173;48.204;11.612;2023-01-15T06:01:34;1.00;;;0.70;;
6280;SDS011;3173;48.204;11.612;2023-01-15T06:04:01;0.77;;;0.60;;
6280;SDS011;3173;48.204;11.612;2023-01-15T06:06:28;1.00;;;0.70;;
6280;SDS011;3173;48.204;11.612;2023-01-15T06:08:54;1.00;;;0.70;;
6280;SDS011;3173;48.204;11.612;2023-01-15T06:11:20;1.73;;;0.70;;
6280;SDS011;3173;48.204;11.612;2023-01-15T06:13:46;1.93;;;0.60;;
6280;SDS011;3173;48.204;11.612;2023-01-15T06:16:13;1.17;;;0.60;;
6280;SDS011;3173;48.204;11.612;2023-01-15T06:18:39;0.90;;;0.60;;
6280;SDS011;3173;48.204;11.612;2023-01-15T06:21:06;0.80;;;0.60;;
6280;SDS011;3173;48.204;11.612;2023-01-15T06:23:32;5.07;;;0.60;;
6280;SDS011;3173;48.204;11.612;2023-01-15T06:26:04;1.00;;;0.60;;
6280;SDS011;3173;48.204;11.612;2023-01-15T06:28:30;0.80;;;0.60;;
6280;SDS011;3173;48.204;11.612;2023-01-15T06:30:57;0.80;;;0.50;;
6280;SDS011;3173;48.204;11.612;2023-01-15T06:33:23;1.23;;;0.60;;
6280;SDS011;3173;48.204;11.612;2023-01-15T06:35:49;0.90;;;0.60;;
6280;SDS011;3173;48.204;11.612;2023-01-15T06:38:16;0.87;;;0.60;;
6280;SDS011;3173;48.204;11.612;2023-01-15T06:40:42;0.90;;;0.63;;
6280;SDS011;3173;48.204;11.612;2023-01-15T06:43:09;0.80;;;0.60;;
6280;SDS011;3173;48.204;11.612;2023-01-15T06:45:55;1.10;;;0.60;;
6280;SDS011;3173;48.204;11.612;2023-01-15T06:48:50;1.23;;;0.60;;
6280;SDS011;3173;48.204;11.612;2023-01-15T06:51:16;0.87;;;0.63;;
6280;SDS011;3173;48.204;11.612;2023-01-15T06:53:45;0.90;;;0.60;;
6280;SDS011;3173;48.204;11.612;2023-01-15T06:56:11;1.30;;;0.60;;
6280;SDS011;3173;48.204;11.612;2023-01-15T06:58:39;1.20;;;0.70;;
6280;SDS011;3173;48.204;11.612;2023-01-15T07:01:07;0.90;;;0.60;;
6280;SDS011;3173;48.204;11.612;2023-01-15T07:03:33;1.10;;;0.60;;
6280;SDS011;3173;48.204;11.612;2023-01-15T07:06:03;1.57;;;0.60;;
6280;SDS011;3173;48.204;11.612;2023-01-15T07:08:29;0.80;;;0.50;;
6280;SDS011;3173;48.204;11.612;2023-01-15T07:11:00;0.90;;;0.70;;
6280;SDS011;3173;48.204;11.612;2023-01-15T07:13:26;1.43;;;0.70;;
6280;SDS011;3173;48.204;11.612;2023-01-15T07:15:52;0.80;;;0.60;;
6280;SDS011;3173;48.204;11.612;2023-01-15T07:18:18;1.10;;;0.70;;
6280;SDS011;3173;48.204;11.612;2023-01-15T07:20:44;0.90;;;0.60;;
6280;SDS011;3173;48.204;11.612;2023-01-15T07:23:10;0.90;;;0.60;;
6280;SDS011;3173;48.204;11.612;2023-01-15T07:25:37;0.97;;;0.70;;
6280;SDS011;3173;48.204;11.612;2023-01-15T07:28:03;0.80;;;0.50;;
6280;SDS011;3173;48.204;11.612;2023-01-15T07:30:29;3.80;;;0.60;;
6280;SDS011;3173;48.204;11.612;2023-01-15T07:32:55;1.20;;;0.60;;
6280;SDS011;3173;48.204;11.612;2023-01-15T07:35:21;0.77;;;0.50;;
6280;SDS011;3173;48.204;11.612;2023-01-15T07:37:50;0.80;;;0.50;;
6280;SDS011;3173;48.204;11.612;2023-01-15T07:40:16;0.93;;;0.70;;
6280;SDS011;3173;48.204;11.612;2023-01-15T07:42:42;0.90;;;0.60;;
6280;SDS011;3173;48.204;11.612;2023-01-15T07:45:27;1.30;;;0.60;;
6280;SDS011;3173;48.204;11.612;2023-01-15T07:48:11;0.93;;;0.60;;
6280;SDS011;3173;48.204;11.612;2023-01-15T07:50:56;0.80;;;0.60;;
6280;SDS011;3173;48.204;11.612;2023-01-15T07:53:22;0.93;;;0.60;;
6280;SDS011;3173;48.204;11.612;2023-01-15T07:55:48;0.97;;;0.60;;
6280;SDS011;3173;48.204;11.612;2023-01-15T07:58:14;1.27;;;0.60;;
6280;SDS011;3173;48.204;11.612;2023-01-15T08:00:40;1.23;;;0.70;;
6280;SDS011;3173;48.204;11.612;2023-01-15T08:03:06;1.10;;;0.70;;
6280;SDS011;3173;48.204;11.612;2023-01-15T08:05:33;1.50;;;0.70;;
6280;SDS011;3173;48.204;11.612;2023-01-15T08:07:59;0.70;;;0.50;;
6280;SDS011;3173;48.204;11.612;2023-01-15T08:10:25;0.90;;;0.70;;
6280;SDS011;3173;48.204;11.612;2023-01-15T08:12:51;1.40;;;0.60;;
6280;SDS011;3173;48.204;11.612;2023-01-15T08:15:39;1.27;;;0.60;;
6280;SDS011;3173;48.204;11.612;2023-01-15T08:18:07;0.80;;;0.60;;
6280;SDS011;3173;48.204;11.612;2023-01-15T08:20:33;0.87;;;0.50;;
6280;SDS011;3173;48.204;11.612;2023-01-15T08:23:00;0.80;;;0.60;;
6280;SDS011;3173;48.204;11.612;2023-01-15T08:25:26;1.80;;;0.70;;
6280;SDS011;3173;48.204;11.612;2023-01-15T08:27:52;2.60;;;0.50;;
6280;SDS011;3173;48.204;11.612;2023-01-15T08:30:20;2.80;;;0.80;;
6280;SDS011;3173;48.204;11.612;2023-01-15T08:32:47;0.80;;;0.50;;
6280;SDS011;3173;48.204;11.612;2023-01-15T08:35:13;0.80;;;0.60;;
6280;SDS011;3173;48.204;11.612;2023-01-15T08:37:39;1.93;;;0.60;;
6280;SDS011;3173;48.204;11.612;2023-01-15T08:40:06;0.80;;;0.60;;
6280;SDS011;3173;48.204;11.612;2023-01-15T08:42:32;0.80;;;0.50;;
6280;SDS011;3173;48.204;11.612;2023-01-15T08:44:58;1.17;;;0.70;;
6280;SDS011;3173;48.204;11.612;2023-01-15T08:47:24;1.27;;;0.70;;
6280;SDS011;3173;48.204;11.612;2023-01-15T08:49:50;1.40;;;0.70;;
6280;SDS011;3173;48.204;11.612;2023-01-15T08:52:16;0.90;;;0.50;;
6280;SDS011;3173;48.204;11.612;2023-01-15T08:54:42;1.10;;;0.70;;
6280;SDS011;3173;48.204;11.612;2023-01-15T08:57:08;1.10;;;0.70;;
6280;SDS011;3173;48.204;11.612;2023-01-15T08:59:36;1.77;;;0.60;;
6280;SDS011;3173;48.204;11.612;2023-01-15T09:02:02;0.80;;;0.50;;
6280;SDS011;3173;48.204;11.612;2023-01-15T09:04:29;0.90;;;0.50;;
6280;SDS011;3173;48.204;11.612;2023-01-15T09:06:55;0.97;;;0.60;;
6280;SDS011;3173;48.204;11.612;2023-01-15T09:09:21;0.80;;;0.53;;
6280;SDS011;3173;48.204;11.612;2023-01-15T09:11:47;0.80;;;0.50;;
6280;SDS011;3173;48.204;11.612;2023-01-15T09:14:13;1.00;;;0.50;;
6280;SDS011;3173;48.204;11.612;2023-01-15T09:16:40;1.13;;;0.60;;
6280;SDS011;3173;48.204;11.612;2023-01-15T09:19:06;2.23;;;0.70;;
6280;SDS011;3173;48.204;11.612;2023-01-15T09:21:32;0.90;;;0.60;;
6280;SDS011;3173;48.204;11.612;2023-01-15T09:23:59;1.23;;;0.70;;
6280;SDS011;3173;48.204;11.612;2023-01-15T09:26:26;1.07;;;0.60;;
6280;SDS011;3173;48.204;11.612;2023-01-15T09:28:53;0.90;;;0.60;;
6280;SDS011;3173;48.204;11.612;2023-01-15T09:31:20;1.53;;;0.70;;
6280;SDS011;3173;48.204;11.612;2023-01-15T09:33:46;1.27;;;0.60;;
6280;SDS011;3173;48.204;11.612;2023-01-15T09:36:15;1.33;;;0.50;;
6280;SDS011;3173;48.204;11.612;2023-01-15T09:38:41;2.20;;;0.80;;
6280;SDS011;3173;48.204;11.612;2023-01-15T09:41:09;1.63;;;0.70;;
6280;SDS011;3173;48.204;11.612;2023-01-15T09:43:59;1.20;;;0.70;;
6280;SDS011;3173;48.204;11.612;2023-01-15T09:46:42;0.90;;;0.60;;
6280;SDS011;3173;48.204;11.612;2023-01-15T09:51:45;0.97;;;0.60;;
6280;SDS011;3173;48.204;11.612;2023-01-15T09:54:31;1.30;;;0.60;;
6280;SDS011;3173;48.204;11.612;2023-01-15T09:57:01;1.53;;;0.60;;
6280;SDS011;3173;48.204;11.612;2023-01-15T09:59:33;2.30;;;0.70;;
6280;SDS011;3173;48.204;11.612;2023-01-15T10:02:00;1.20;;;0.60;;
6280;SDS011;3173;48.204;11.612;2023-01-15T10:06:58;1.20;;;0.70;;
6280;SDS011;3173;48.204;11.612;2023-01-15T10:09:29;3.23;;;0.60;;
6280;SDS011;3173;48.204;11.612;2023-01-15T10:12:01;0.80;;;0.50;;
6280;SDS011;3173;48.204;11.612;2023-01-15T10:14:54;1.10;;;0.67;;
6280;SDS011;3173;48.204;11.612;2023-01-15T10:17:29;1.10;;;0.77;;
6280;SDS011;3173;48.204;11.612;2023-01-15T10:19:59;1.83;;;0.60;;
6280;SDS011;3173;48.204;11.612;2023-01-15T10:22:36;1.00;;;0.70;;
6280;SDS011;3173;48.204;11.612;2023-01-15T10:25:04;0.80;;;0.60;;
6280;SDS011;3173;48.204;11.612;2023-01-15T10:27:33;0.80;;;0.60;;
6280;SDS011;3173;48.204;11.612;2023-01-15T10:30:04;0.80;;;0.60;;
6280;SDS011;3173;48.204;11.612;2023-01-15T10:32:37;0.80;;;0.60;;
6280;SDS011;3173;48.204;11.612;2023-01-15T10:45:26;0.80;;;0.60;;
6280;SDS011;3173;48.204;11.612;2023-01-15T10:47:56;1.00;;;0.70;;
6280;SDS011;3173;48.204;11.612;2023-01-15T10:50:24;1.00;;;0.70;;
6280;SDS011;3173;48.204;11.612;2023-01-15T10:55:44;0.90;;;0.60;;
6280;SDS011;3173;48.204;11.612;2023-01-15T11:00:52;1.20;;;0.60;;
6280;SDS011;3173;48.204;11.612;2023-01-15T11:03:20;0.80;;;0.60;;
6280;SDS011;3173;48.204;11.612;2023-01-15T11:05:48;1.07;;;0.63;;
6280;SDS011;3173;48.204;11.612;2023-01-15T11:08:24;0.80;;;0.60;;
6280;SDS011;3173;48.204;11.612;2023-01-15T11:10:55;0.80;;;0.60;;
6280;SDS011;3173;48.204;11.612;2023-01-15T11:13:23;0.70;;;0.60;;
6280;SDS011;3173;48.204;11.612;2023-01-15T11:16:15;1.10;;;0.60;;
6280;SDS011;3173;48.204;11.612;2023-01-15T11:19:09;1.33;;;0.80;;
6280;SDS011;3173;48.204;11.612;2023-01-15T11:21:58;0.90;;;0.70;;
6280;SDS011;3173;48.204;11.612;2023-01-15T11:24:26;0.90;;;0.70;;
6280;SDS011;3173;48.204;11.612;2023-01-15T11:26:52;0.83;;;0.63;;
6280;SDS011;3173;48.204;11.612;2023-01-15T11:29:21;0.83;;;0.50;;
6280;SDS011;3173;48.204;11.612;2023-01-15T11:31:49;0.80;;;0.60;;
6280;SDS011;3173;48.204;11.612;2023-01-15T11:34:17;1.13;;;0.60;;
6280;SDS011;3173;48.204;11.612;2023-01-15T11:36:45;0.80;;;0.60;;
6280;SDS011;3173;48.204;11.612;2023-01-15T11:39:21;1.23;;;1.07;;
6280;SDS011;3173;48.204;11.612;2023-01-15T11:41:47;0.80;;;0.60;;
6280;SDS011;3173;48.204;11.612;2023-01-15T11:44:31;1.10;;;0.70;;
6280;SDS011;3173;48.204;11.612;2023-01-15T11:47:18;2.20;;;0.60;;
6280;SDS011;3173;48.204;11.612;2023-01-15T11:50:15;2.00;;;0.60;;
6280;SDS011;3173;48.204;11.612;2023-01-15T11:53:00;0.90;;;0.70;;
6280;SDS011;3173;48.204;11.612;2023-01-15T11:55:26;0.90;;;0.70;;
6280;SDS011;3173;48.204;11.612;2023-01-15T11:57:53;0.90;;;0.67;;
6280;SDS011;3173;48.204;11.612;2023-01-15T12:00:24;0.80;;;0.60;;
6280;SDS011;3173;48.204;11.612;2023-01-15T12:02:51;2.00;;;0.90;;
6280;SDS011;3173;48.204;11.612;2023-01-15T12:05:19;0.93;;;0.67;;
6280;SDS011;3173;48.204;11.612;2023-01-15T12:07:47;1.63;;;0.60;;
6280;SDS011;3173;48.204;11.612;2023-01-15T12:10:21;1.00;;;0.90;;
6280;SDS011;3173;48.204;11.612;2023-01-15T12:13:09;0.90;;;0.70;;
6280;SDS011;3173;48.204;11.612;2023-01-15T12:15:54;1.13;;;0.70;;
6280;SDS011;3173;48.204;11.612;2023-01-15T12:21:04;0.90;;;0.70;;
6280;SDS011;3173;48.204;11.612;2023-01-15T12:26:12;0.90;;;0.77;;
6280;SDS011;3173;48.204;11.612;2023-01-15T12:29:16;1.10;;;0.80;;
6280;SDS011;3173;48.204;11.612;2023-01-15T12:31:37;1.00;;;0.80;;
6280;SDS011;3173;48.204;11.612;2023-01-15T12:34:11;1.40;;;0.67;;
6280;SDS011;3173;48.204;11.612;2023-01-15T12:36:42;0.90;;;0.70;;
6280;SDS011;3173;48.204;11.612;2023-01-15T12:39:23;0.90;;;0.73;;
6280;SDS011;3173;48.204;11.612;2023-01-15T12:41:56;3.00;;;0.80;;
6280;SDS011;3173;48.204;11.612;2023-01-15T12:44:48;1.00;;;0.80;;
6280;SDS011;3173;48.204;11.612;2023-01-15T12:52:50;1.00;;;0.77;;
6280;SDS011;3173;48.204;11.612;2023-01-15T12:55:20;0.90;;;0.63;;
6280;SDS011;3173;48.204;11.612;2023-01-15T12:57:53;1.10;;;0.70;;
6280;SDS011;3173;48.204;11.612;2023-01-15T13:00:25;1.10;;;0.73;;
6280;SDS011;3173;48.204;11.612;2023-01-15T13:05:20;0.90;;;0.67;;
6280;SDS011;3173;48.204;11.612;2023-01-15T13:08:08;1.20;;;0.80;;
6280;SDS011;3173;48.204;11.612;2023-01-15T13:10:35;1.27;;;0.80;;
6280;SDS011;3173;48.204;11.612;2023-01-15T13:13:14;1.13;;;0.90;;
6280;SDS011;3173;48.204;11.612;2023-01-15T13:16:00;0.80;;;0.70;;
6280;SDS011;3173;48.204;11.612;2023-01-15T13:18:31;1.10;;;0.80;;
6280;SDS011;3173;48.204;11.612;2023-01-15T13:20:59;1.10;;;0.80;;
6280;SDS011;3173;48.204;11.612;2023-01-15T13:26:16;1.30;;;0.80;;
6280;SDS011;3173;48.204;11.612;2023-01-15T13:31:49;1.30;;;0.80;;
6280;SDS011;3173;48.204;11.612;2023-01-15T13:34:40;1.33;;;0.80;;
6280;SDS011;3173;48.204;11.612;2023-01-15T13:37:06;1.03;;;0.80;;
6280;SDS011;3173;48.204;11.612;2023-01-15T13:39:37;1.93;;;0.90;;
6280;SDS011;3173;48.204;11.612;2023-01-15T13:42:05;1.43;;;0.90;;
6280;SDS011;3173;48.204;11.612;2023-01-15T13:44:56;1.40;;;0.80;;
6280;SDS011;3173;48.204;11.612;2023-01-15T13:47:25;0.80;;;0.70;;
6280;SDS011;3173;48.204;11.612;2023-01-15T13:49:53;0.87;;;0.63;;
6280;SDS011;3173;48.204;11.612;2023-01-15T13:52:33;1.83;;;0.80;;
6280;SDS011;3173;48.204;11.612;2023-01-15T13:55:00;1.00;;;0.70;;
6280;SDS011;3173;48.204;11.612;2023-01-15T13:57:34;0.80;;;0.60;;
6280;SDS011;3173;48.204;11.612;2023-01-15T14:00:03;1.77;;;0.60;;
6280;SDS011;3173;48.204;11.612;2023-01-15T14:02:34;2.10;;;0.60;;
6280;SDS011;3173;48.204;11.612;2023-01-15T14:05:24;0.80;;;0.60;;
6280;SDS011;3173;48.204;11.612;2023-01-15T14:07:47;0.70;;;0.60;;
6280;SDS011;3173;48.204;11.612;2023-01-15T14:15:18;1.13;;;0.70;;
6280;SDS011;3173;48.204;11.612;2023-01-15T14:23:09;1.20;;;1.10;;
6280;SDS011;3173;48.204;11.612;2023-01-15T14:35:42;1.13;;;0.70;;
6280;SDS011;3173;48.204;11.612;2023-01-15T14:38:11;1.00;;;0.80;;
6280;SDS011;3173;48.204;11.612;2023-01-15T14:40:38;0.80;;;0.60;;
6280;SDS011;3173;48.204;11.612;2023-01-15T14:43:16;0.90;;;0.70;;
6280;SDS011;3173;48.204;11.612;2023-01-15T14:45:43;1.00;;;0.80;;
6280;SDS011;3173;48.204;11.612;2023-01-15T14:48:18;0.87;;;0.60;;
6280;SDS011;3173;48.204;11.612;2023-01-15T14:50:45;0.87;;;0.70;;
6280;SDS011;3173;48.204;11.612;2023-01-15T14:55:41;0.80;;;0.63;;
6280;SDS011;3173;48.204;11.612;2023-01-15T15:00:53;1.23;;;0.70;;
6280;SDS011;3173;48.204;11.612;2023-01-15T15:03:26;1.30;;;0.90;;
6280;SDS011;3173;48.204;11.612;2023-01-15T15:05:55;0.93;;;0.73;;
6280;SDS011;3173;48.204;11.612;2023-01-15T15:08:21;1.20;;;0.80;;
6280;SDS011;3173;48.204;11.612;2023-01-15T15:10:52;1.20;;;0.80;;
6280;SDS011;3173;48.204;11.612;2023-01-15T15:13:34;1.10;;;0.70;;
6280;SDS011;3173;48.204;11.612;2023-01-15T15:16:11;0.90;;;0.70;;
6280;SDS011;3173;48.204;11.612;2023-01-15T15:18:47;0.80;;;0.63;;
6280;SDS011;3173;48.204;11.612;2023-01-15T15:21:19;0.90;;;0.80;;
6280;SDS011;3173;48.204;11.612;2023-01-15T15:26:25;1.17;;;0.80;;
6280;SDS011;3173;48.204;11.612;2023-01-15T15:29:01;1.00;;;0.70;;
6280;SDS011;3173;48.204;11.612;2023-01-15T15:31:31;1.20;;;0.80;;
6280;SDS011;3173;48.204;11.612;2023-01-15T15:33:57;1.27;;;0.70;;
6280;SDS011;3173;48.204;11.612;2023-01-15T15:36:24;1.97;;;0.97;;
6280;SDS011;3173;48.204;11.612;2023-01-15T15:38:55;5.63;;;1.27;;
6280;SDS011;3173;48.204;11.612;2023-01-15T15:41:23;1.20;;;0.90;;
6280;SDS011;3173;48.204;11.612;2023-01-15T15:44:14;1.20;;;1.00;;
6280;SDS011;3173;48.204;11.612;2023-01-15T15:47:16;1.30;;;0.90;;
6280;SDS011;3173;48.204;11.612;2023-01-15T15:50:01;1.57;;;1.03;;
6280;SDS011;3173;48.204;11.612;2023-01-15T15:52:27;1.57;;;1.10;;
6280;SDS011;3173;48.204;11.612;2023-01-15T15:54:57;2.67;;;1.10;;
6280;SDS011;3173;48.204;11.612;2023-01-15T15:57:23;2.40;;;1.00;;
6280;SDS011;3173;48.204;11.612;2023-01-15T15:59:50;0.97;;;0.80;;
6280;SDS011;3173;48.204;11.612;2023-01-15T16:02:17;1.33;;;0.90;;
6280;SDS011;3173;48.204;11.612;2023-01-15T16:04:47;0.97;;;0.73;;
6280;SDS011;3173;48.204;11.612;2023-01-15T16:07:14;1.00;;;0.87;;
6280;SDS011;3173;48.204;11.612;2023-01-15T16:09:48;1.23;;;1.00;;
6280;SDS011;3173;48.204;11.612;2023-01-15T16:12:15;2.30;;;1.30;;
6280;SDS011;3173;48.204;11.612;2023-01-15T16:14:41;1.47;;;1.20;;
6280;SDS011;3173;48.204;11.612;2023-01-15T16:17:10;1.80;;;1.33;;
6280;SDS011;3173;48.204;11.612;2023-01-15T16:19:37;1.63;;;1.00;;
6280;SDS011;3173;48.204;11.612;2023-01-15T16:22:06;1.33;;;1.00;;
6280;SDS011;3173;48.204;11.612;2023-01-15T16:24:33;2.00;;;1.23;;
6280;SDS011;3173;48.204;11.612;2023-01-15T16:27:00;1.97;;;1.37;;
6280;SDS011;3173;48.204;11.612;2023-01-15T16:29:28;1.90;;;1.00;;
6280;SDS011;3173;48.204;11.612;2023-01-15T16:31:55;1.30;;;1.00;;
6280;SDS011;3173;48.204;11.612;2023-01-15T16:34:24;1.47;;;0.90;;
6280;SDS011;3173;48.204;11.612;2023-01-15T16:36:51;1.90;;;0.90;;
6280;SDS011;3173;48.204;11.612;2023-01-15T16:39:20;0.97;;;0.80;;
6280;SDS011;3173;48.204;11.612;2023-01-15T16:41:47;2.73;;;0.90;;